createdAt,value
2022-11-24T00:01:21.254Z,2.40
2022-11-24T00:03:56.298Z,2.53
2022-11-24T00:06:24.411Z,2.78
2022-11-24T00:08:52.669Z,2.40
2022-11-24T00:11:26.070Z,2.45
2022-11-24T00:13:54.354Z,2.42
2022-11-24T00:16:25.061Z,2.10
2022-11-24T00:18:54.982Z,2.67
2022-11-24T00:21:23.381Z,2.50
2022-11-24T00:23:51.575Z,2.37
2022-11-24T00:26:23.897Z,2.30
2022-11-24T00:28:54.093Z,2.47
2022-11-24T00:31:25.962Z,2.25
2022-11-24T00:33:56.458Z,2.15
2022-11-24T00:36:26.265Z,2.75
2022-11-24T00:38:55.740Z,2.37
2022-11-24T00:41:25.013Z,2.43
2022-11-24T00:43:52.895Z,2.62
2022-11-24T00:46:21.247Z,2.58
2022-11-24T00:48:48.826Z,2.12
2022-11-24T00:51:18.198Z,2.28
2022-11-24T00:53:46.435Z,2.40
2022-11-24T00:56:14.166Z,2.25
2022-11-24T00:58:41.949Z,2.30
2022-11-24T01:01:16.165Z,2.40
2022-11-24T01:03:43.917Z,2.33
2022-11-24T01:06:14.659Z,2.23
2022-11-24T01:08:42.480Z,2.70
2022-11-24T01:11:25.319Z,2.20
2022-11-24T01:13:58.590Z,2.20
2022-11-24T01:16:30.165Z,3.75
2022-11-24T01:18:58.518Z,2.57
2022-11-24T01:21:26.172Z,2.40
2022-11-24T01:23:53.557Z,2.35
2022-11-24T01:26:22.450Z,2.42
2022-11-24T01:28:54.791Z,2.40
2022-11-24T01:31:23.702Z,2.50
2022-11-24T01:33:51.388Z,2.12
2022-11-24T01:36:19.436Z,2.70
2022-11-24T01:38:47.188Z,2.30
2022-11-24T01:41:18.166Z,2.50
2022-11-24T01:43:46.309Z,2.80
2022-11-24T01:46:29.252Z,2.58
2022-11-24T01:49:26.973Z,2.40
2022-11-24T01:52:07.362Z,2.80
2022-11-24T01:54:43.779Z,2.92
2022-11-24T01:57:22.149Z,2.93
2022-11-24T01:59:52.956Z,2.83
2022-11-24T02:02:22.409Z,2.45
2022-11-24T02:04:51.454Z,2.78
2022-11-24T02:07:19.355Z,2.72
2022-11-24T02:09:54.925Z,2.47
2022-11-24T02:12:26.545Z,2.83
2022-11-24T02:14:55.950Z,2.85
2022-11-24T02:17:23.602Z,2.85
2022-11-24T02:20:06.054Z,2.62
2022-11-24T02:23:01.169Z,3.03
2022-11-24T02:25:41.318Z,3.05
2022-11-24T02:28:17.387Z,2.47
2022-11-24T02:30:45.816Z,3.00
2022-11-24T02:33:14.041Z,2.65
2022-11-24T02:35:41.607Z,2.57
2022-11-24T02:38:13.633Z,3.12
2022-11-24T02:40:44.610Z,2.62
2022-11-24T02:43:15.920Z,2.50
2022-11-24T02:45:43.663Z,2.22
2022-11-24T02:48:11.063Z,2.43
2022-11-24T02:50:38.389Z,2.65
2022-11-24T02:53:06.110Z,2.20
2022-11-24T02:55:33.453Z,2.55
2022-11-24T02:58:00.808Z,2.12
2022-11-24T03:00:28.442Z,2.33
2022-11-24T03:02:55.840Z,1.98
2022-11-24T03:05:23.448Z,2.22
2022-11-24T03:07:51.174Z,1.87
2022-11-24T03:10:18.619Z,2.20
2022-11-24T03:12:46.002Z,2.10
2022-11-24T03:15:13.715Z,1.75
2022-11-24T03:17:41.146Z,1.98
2022-11-24T03:20:09.361Z,1.80
2022-11-24T03:22:37.458Z,1.80
2022-11-24T03:25:05.154Z,2.03
2022-11-24T03:27:32.722Z,1.73
2022-11-24T03:30:00.426Z,1.65
2022-11-24T03:32:27.835Z,1.50
2022-11-24T03:34:55.365Z,1.30
2022-11-24T03:37:23.106Z,1.30
2022-11-24T03:39:50.533Z,1.37
2022-11-24T03:42:17.932Z,1.50
2022-11-24T03:44:45.582Z,1.00
2022-11-24T03:47:12.970Z,1.35
2022-11-24T03:49:41.559Z,1.23
2022-11-24T03:52:09.418Z,1.12
2022-11-24T03:54:36.837Z,1.50
2022-11-24T03:57:04.282Z,1.00
2022-11-24T03:59:31.959Z,1.40
2022-11-24T04:01:59.426Z,2.07
2022-11-24T04:04:27.152Z,1.10
2022-11-24T04:06:54.532Z,1.35
2022-11-24T04:09:21.934Z,1.30
2022-11-24T04:12:07.960Z,1.48
2022-11-24T04:14:35.627Z,1.10
2022-11-24T04:17:04.787Z,1.35
2022-11-24T04:19:32.159Z,1.40
2022-11-24T04:21:59.550Z,1.20
2022-11-24T04:24:27.197Z,1.33
2022-11-24T04:26:54.593Z,1.40
2022-11-24T04:29:22.034Z,1.45
2022-11-24T04:31:49.781Z,1.55
2022-11-24T04:34:17.281Z,1.37
2022-11-24T04:36:44.669Z,1.77
2022-11-24T04:39:24.845Z,1.23
2022-11-24T04:41:53.931Z,1.50
2022-11-24T04:44:21.773Z,1.17
2022-11-24T04:46:49.213Z,1.80
2022-11-24T04:49:17.015Z,1.80
2022-11-24T04:51:44.777Z,1.20
2022-11-24T04:54:13.454Z,1.30
2022-11-24T04:56:41.796Z,1.40
2022-11-24T04:59:14.968Z,1.77
2022-11-24T05:01:43.840Z,1.77
2022-11-24T05:04:13.275Z,1.77
2022-11-24T05:06:41.190Z,1.62
2022-11-24T05:09:09.035Z,1.35
2022-11-24T05:11:36.655Z,1.30
2022-11-24T05:14:04.077Z,1.77
2022-11-24T05:16:31.597Z,1.37
2022-11-24T05:18:59.445Z,1.95
2022-11-24T05:21:27.946Z,1.52
2022-11-24T05:23:55.456Z,1.27
2022-11-24T05:26:23.131Z,2.33
2022-11-24T05:28:50.581Z,1.80
2022-11-24T05:31:18.112Z,1.58
2022-11-24T05:33:46.051Z,1.80
2022-11-24T05:36:33.446Z,2.30
2022-11-24T05:39:01.272Z,4.15
2022-11-24T05:41:28.818Z,4.03
2022-11-24T05:43:56.172Z,2.75
2022-11-24T05:46:23.867Z,2.33
2022-11-24T05:48:51.277Z,2.78
2022-11-24T05:51:18.712Z,2.65
2022-11-24T05:53:46.396Z,2.03
2022-11-24T05:56:13.814Z,2.35
2022-11-24T05:58:42.966Z,3.53
2022-11-24T06:01:10.953Z,2.85
2022-11-24T06:03:38.650Z,2.83
2022-11-24T06:06:06.232Z,2.53
2022-11-24T06:08:34.413Z,2.40
2022-11-24T06:11:17.595Z,2.35
2022-11-24T06:13:46.086Z,2.83
2022-11-24T06:16:14.974Z,2.85
2022-11-24T06:18:42.590Z,3.30
2022-11-24T06:21:11.557Z,5.15
2022-11-24T06:23:40.723Z,6.87
2022-11-24T06:26:09.216Z,7.37
2022-11-24T06:28:36.657Z,6.40
2022-11-24T06:31:05.562Z,5.13
2022-11-24T06:33:34.306Z,4.60
2022-11-24T06:36:04.728Z,4.72
2022-11-24T06:38:32.854Z,4.93
2022-11-24T06:41:26.721Z,4.70
2022-11-24T06:43:54.643Z,4.93
2022-11-24T06:46:22.682Z,6.55
2022-11-24T06:48:53.138Z,4.55
2022-11-24T06:51:20.828Z,4.70
2022-11-24T06:53:48.246Z,5.05
2022-11-24T06:56:19.373Z,5.03
2022-11-24T06:58:49.991Z,5.00
2022-11-24T07:01:18.994Z,4.57
2022-11-24T07:03:48.245Z,4.25
2022-11-24T07:06:16.668Z,4.40
2022-11-24T07:08:44.515Z,4.20
2022-11-24T07:11:15.761Z,3.78
2022-11-24T07:13:44.122Z,4.07
2022-11-24T07:16:16.753Z,4.43
2022-11-24T07:18:45.695Z,5.28
2022-11-24T07:21:13.747Z,4.77
2022-11-24T07:23:41.837Z,4.40
2022-11-24T07:26:10.521Z,4.35
2022-11-24T07:28:38.254Z,4.18
2022-11-24T07:31:07.655Z,4.20
2022-11-24T07:33:35.662Z,4.23
2022-11-24T07:36:05.163Z,4.50
2022-11-24T07:38:33.209Z,3.72
2022-11-24T07:41:09.673Z,4.57
2022-11-24T07:43:38.534Z,4.40
2022-11-24T07:46:08.127Z,5.20
2022-11-24T07:48:35.687Z,5.03
2022-11-24T07:51:05.016Z,4.62
2022-11-24T07:53:33.664Z,5.10
2022-11-24T07:56:03.352Z,4.78
2022-11-24T07:58:33.695Z,4.33
2022-11-24T08:01:10.705Z,4.53
2022-11-24T08:03:38.801Z,4.03
2022-11-24T08:08:55.140Z,4.85
2022-11-24T08:11:23.009Z,4.20
2022-11-24T08:13:50.506Z,4.60
2022-11-24T08:16:19.721Z,4.97
2022-11-24T08:18:55.050Z,4.75
2022-11-24T08:21:23.875Z,5.30
2022-11-24T08:23:56.123Z,4.77
2022-11-24T08:26:25.437Z,4.37
2022-11-24T08:28:55.482Z,4.37
2022-11-24T08:31:22.927Z,4.40
2022-11-24T08:33:50.891Z,4.20
2022-11-24T08:36:19.427Z,3.93
2022-11-24T08:38:48.945Z,3.30
2022-11-24T08:41:17.822Z,2.80
2022-11-24T08:43:45.297Z,2.78
2022-11-24T08:46:17.177Z,3.22
2022-11-24T08:48:52.154Z,2.20
2022-11-24T08:51:22.897Z,2.42
2022-11-24T08:53:58.492Z,2.87
2022-11-24T08:56:27.551Z,2.65
2022-11-24T08:58:56.267Z,2.47
2022-11-24T09:01:25.043Z,2.80
2022-11-24T09:03:53.938Z,2.50
2022-11-24T09:06:25.128Z,2.90
2022-11-24T09:08:54.663Z,2.90
2022-11-24T09:11:23.155Z,2.97
2022-11-24T09:13:50.614Z,3.30
2022-11-24T09:16:21.163Z,2.00
2022-11-24T09:18:55.014Z,2.70
2022-11-24T09:21:23.043Z,2.50
2022-11-24T09:23:52.599Z,2.50
2022-11-24T09:26:31.747Z,2.30
2022-11-24T09:29:01.642Z,2.62
2022-11-24T09:31:34.608Z,2.33
2022-11-24T09:34:07.233Z,2.28
2022-11-24T09:36:35.542Z,2.45
2022-11-24T09:39:03.830Z,2.63
2022-11-24T09:41:37.240Z,2.28
2022-11-24T09:44:04.838Z,2.33
2022-11-24T09:47:11.123Z,2.92
2022-11-24T09:49:49.842Z,2.40
2022-11-24T09:52:34.646Z,2.17
2022-11-24T09:55:05.217Z,2.50
2022-11-24T09:57:37.634Z,2.20
2022-11-24T10:00:12.725Z,2.47
2022-11-24T10:02:40.557Z,2.50
2022-11-24T10:05:08.469Z,2.47
2022-11-24T10:08:02.547Z,2.50
2022-11-24T10:10:44.401Z,2.28
2022-11-24T10:13:46.755Z,2.28
2022-11-24T10:16:40.343Z,2.37
2022-11-24T10:19:22.018Z,2.30
2022-11-24T10:21:52.464Z,2.45
2022-11-24T10:24:47.294Z,2.50
2022-11-24T10:27:39.243Z,2.85
2022-11-24T10:30:22.100Z,2.10
2022-11-24T10:32:57.078Z,2.17
2022-11-24T10:35:37.684Z,1.80
2022-11-24T10:38:25.280Z,2.00
2022-11-24T10:40:58.943Z,2.03
2022-11-24T10:43:28.523Z,1.75
2022-11-24T10:46:29.557Z,1.40
2022-11-24T10:49:03.907Z,1.58
2022-11-24T10:51:37.066Z,2.12
2022-11-24T10:54:17.523Z,1.73
2022-11-24T10:56:47.400Z,1.65
2022-11-24T10:59:26.867Z,1.50
2022-11-24T11:01:55.105Z,1.80
2022-11-24T11:04:31.029Z,1.55
2022-11-24T11:07:21.265Z,1.62
2022-11-24T11:09:49.622Z,1.30
2022-11-24T11:12:45.211Z,1.30
2022-11-24T11:15:30.597Z,1.20
2022-11-24T11:18:01.881Z,1.35
2022-11-24T11:20:31.551Z,1.10
2022-11-24T11:23:03.310Z,1.08
2022-11-24T11:25:36.249Z,1.40
2022-11-24T11:28:22.268Z,1.08
2022-11-24T11:31:18.003Z,0.80
2022-11-24T11:34:08.361Z,1.27
2022-11-24T11:36:45.249Z,1.20
2022-11-24T11:39:23.439Z,1.27
2022-11-24T11:42:45.229Z,1.55
2022-11-24T11:45:14.134Z,1.10
2022-11-24T11:47:56.663Z,1.00
2022-11-24T11:50:30.711Z,1.25
2022-11-24T11:53:27.557Z,0.80
2022-11-24T11:56:10.119Z,0.88
2022-11-24T11:58:46.981Z,0.60
2022-11-24T12:01:38.278Z,0.90
2022-11-24T12:04:21.160Z,0.80
2022-11-24T12:06:57.634Z,0.60
2022-11-24T12:09:41.547Z,0.75
2022-11-24T12:12:45.582Z,0.68
2022-11-24T12:15:31.878Z,0.68
2022-11-24T12:18:55.152Z,0.62
2022-11-24T12:21:26.047Z,0.70
2022-11-24T12:24:18.263Z,0.68
2022-11-24T12:27:03.291Z,0.68
2022-11-24T12:29:39.464Z,0.73
2022-11-24T12:32:44.012Z,0.77
2022-11-24T12:35:14.656Z,0.73
2022-11-24T12:38:03.733Z,0.70
2022-11-24T12:40:55.257Z,0.52
2022-11-24T12:43:40.010Z,0.70
2022-11-24T12:46:29.376Z,0.70
2022-11-24T12:49:20.624Z,1.10
2022-11-24T12:51:56.153Z,1.12
2022-11-24T12:54:25.830Z,0.80
2022-11-24T12:57:02.438Z,0.85
2022-11-24T12:59:48.200Z,0.80
2022-11-24T13:02:53.279Z,0.73
2022-11-24T13:05:32.872Z,0.70
2022-11-24T13:08:02.927Z,0.60
2022-11-24T13:10:56.146Z,1.60
2022-11-24T13:13:28.099Z,4.90
2022-11-24T13:19:00.748Z,1.12
2022-11-24T13:21:31.244Z,0.73
2022-11-24T13:24:04.903Z,1.73
2022-11-24T13:27:11.600Z,1.00
2022-11-24T13:29:40.247Z,0.70
2022-11-24T13:32:21.018Z,0.90
2022-11-24T13:34:55.089Z,0.65
2022-11-24T13:37:26.314Z,0.45
2022-11-24T13:40:30.016Z,0.55
2022-11-24T13:42:57.826Z,0.53
2022-11-24T13:45:45.190Z,0.50
2022-11-24T13:48:18.823Z,0.70
2022-11-24T13:50:56.191Z,0.70
2022-11-24T13:53:47.318Z,0.80
2022-11-24T13:56:17.520Z,0.87
2022-11-24T13:58:48.712Z,0.50
2022-11-24T14:01:33.944Z,0.50
2022-11-24T14:04:31.861Z,0.75
2022-11-24T14:07:12.297Z,0.70
2022-11-24T14:09:48.110Z,0.77
2022-11-24T14:12:24.404Z,0.70
2022-11-24T14:14:57.157Z,0.30
2022-11-24T14:17:28.112Z,0.50
2022-11-24T14:19:57.563Z,0.50
2022-11-24T14:22:41.345Z,0.40
2022-11-24T14:25:30.123Z,0.25
2022-11-24T14:28:00.461Z,0.37
2022-11-24T14:30:28.523Z,0.30
2022-11-24T14:32:56.422Z,0.40
2022-11-24T14:35:29.764Z,0.30
2022-11-24T14:37:58.002Z,0.50
2022-11-24T14:40:55.596Z,0.55
2022-11-24T14:43:29.157Z,0.40
2022-11-24T14:46:01.102Z,0.30
2022-11-24T14:48:37.034Z,0.40
2022-11-24T14:51:06.454Z,0.40
2022-11-24T14:53:35.003Z,0.30
2022-11-24T14:56:38.714Z,0.40
2022-11-24T14:59:24.110Z,0.30
2022-11-24T15:01:51.637Z,0.60
2022-11-24T15:04:46.723Z,0.95
2022-11-24T15:07:26.587Z,0.45
2022-11-24T15:10:00.255Z,0.40
2022-11-24T15:12:34.966Z,0.40
2022-11-24T15:15:07.182Z,0.30
2022-11-24T15:17:34.734Z,0.62
2022-11-24T15:20:17.091Z,0.40
2022-11-24T15:22:45.121Z,0.55
2022-11-24T15:25:27.869Z,0.37
2022-11-24T15:27:55.554Z,0.77
2022-11-24T15:30:23.395Z,0.60
2022-11-24T15:32:52.293Z,0.50
2022-11-24T15:35:21.688Z,0.37
2022-11-24T15:37:50.124Z,0.50
2022-11-24T15:40:18.403Z,0.53
2022-11-24T15:42:51.770Z,0.70
2022-11-24T15:45:20.771Z,0.57
2022-11-24T15:47:48.667Z,1.10
2022-11-24T15:50:16.677Z,1.58
2022-11-24T15:52:44.802Z,4.37
2022-11-24T15:55:21.253Z,5.57
2022-11-24T15:57:49.068Z,3.90
2022-11-24T16:00:19.326Z,4.47
2022-11-24T16:02:47.451Z,3.45
2022-11-24T16:05:16.373Z,5.33
2022-11-24T16:07:44.668Z,5.68
2022-11-24T16:10:34.968Z,4.70
2022-11-24T16:13:02.416Z,3.12
2022-11-24T16:15:30.482Z,3.03
2022-11-24T16:17:57.898Z,2.37
2022-11-24T16:20:25.378Z,2.83
2022-11-24T16:22:54.239Z,2.33
2022-11-24T16:25:21.749Z,2.37
2022-11-24T16:27:49.200Z,2.10
2022-11-24T16:30:17.102Z,2.60
2022-11-24T16:32:44.498Z,2.03
2022-11-24T16:35:11.965Z,2.12
2022-11-24T16:37:39.809Z,1.20
2022-11-24T16:40:07.840Z,1.50
2022-11-24T16:42:35.335Z,1.43
2022-11-24T16:45:03.380Z,2.50
2022-11-24T16:47:30.794Z,5.05
2022-11-24T16:49:58.354Z,4.20
2022-11-24T16:52:26.321Z,4.47
2022-11-24T16:54:53.761Z,4.73
2022-11-24T16:57:21.530Z,4.90
2022-11-24T16:59:49.219Z,3.67
2022-11-24T17:02:16.964Z,4.50
2022-11-24T17:04:45.426Z,13.43
2022-11-24T17:07:15.446Z,25.60
2022-11-24T17:09:43.104Z,19.45
2022-11-24T17:12:10.590Z,7.65
2022-11-24T17:14:38.410Z,7.57
2022-11-24T17:17:05.839Z,5.80
2022-11-24T17:19:33.269Z,6.47
2022-11-24T17:22:00.999Z,5.32
2022-11-24T17:24:28.577Z,4.40
2022-11-24T17:26:56.182Z,3.47
2022-11-24T17:29:24.511Z,3.20
2022-11-24T17:31:51.947Z,2.70
2022-11-24T17:34:19.520Z,1.85
2022-11-24T17:36:47.325Z,2.17
2022-11-24T17:39:15.301Z,2.20
2022-11-24T17:41:43.271Z,2.50
2022-11-24T17:44:12.662Z,1.87
2022-11-24T17:46:40.205Z,1.98
2022-11-24T17:49:08.548Z,1.70
2022-11-24T17:51:36.418Z,1.48
2022-11-24T17:54:31.134Z,1.60
2022-11-24T17:56:51.870Z,1.30
2022-11-24T17:59:19.252Z,1.40
2022-11-24T18:01:46.826Z,1.25
2022-11-24T18:04:14.624Z,1.20
2022-11-24T18:06:42.093Z,1.60
2022-11-24T18:09:09.560Z,1.40
2022-11-24T18:11:37.588Z,1.42
2022-11-24T18:14:05.113Z,1.40
2022-11-24T18:16:34.589Z,1.48
2022-11-24T18:19:09.160Z,1.62
2022-11-24T18:21:41.415Z,2.00
2022-11-24T18:24:11.247Z,1.90
2022-11-24T18:26:42.840Z,2.00
2022-11-24T18:29:11.571Z,1.90
2022-11-24T18:31:40.031Z,2.10
2022-11-24T18:34:08.223Z,2.37
2022-11-24T18:36:36.197Z,3.08
2022-11-24T18:39:06.154Z,2.62
2022-11-24T18:41:33.929Z,3.22
2022-11-24T18:44:03.168Z,2.70
2022-11-24T18:46:30.840Z,2.70
2022-11-24T18:48:58.977Z,4.20
2022-11-24T18:51:27.305Z,4.35
2022-11-24T18:53:54.949Z,5.65
2022-11-24T18:56:22.443Z,6.43
2022-11-24T18:58:54.855Z,6.57
2022-11-24T19:01:27.966Z,5.55
2022-11-24T19:03:58.385Z,5.50
2022-11-24T19:06:35.130Z,4.95
2022-11-24T19:09:15.255Z,4.97
2022-11-24T19:11:44.684Z,4.50
2022-11-24T19:14:15.274Z,5.30
2022-11-24T19:16:43.919Z,4.57
2022-11-24T19:19:12.784Z,5.40
2022-11-24T19:21:41.171Z,4.93
2022-11-24T19:24:18.949Z,5.23
2022-11-24T19:26:46.694Z,4.55
2022-11-24T19:29:14.135Z,4.32
2022-11-24T19:31:41.610Z,4.53
2022-11-24T19:34:10.081Z,3.97
2022-11-24T19:36:37.704Z,3.80
2022-11-24T19:39:05.634Z,4.37
2022-11-24T19:41:33.944Z,3.95
2022-11-24T19:44:02.804Z,3.83
2022-11-24T19:46:30.598Z,4.03
2022-11-24T19:49:02.383Z,4.50
2022-11-24T19:51:35.066Z,5.60
2022-11-24T19:54:04.862Z,4.65
2022-11-24T19:56:34.895Z,5.47
2022-11-24T19:59:05.011Z,5.32
2022-11-24T20:01:38.789Z,5.90
2022-11-24T20:04:09.353Z,5.80
2022-11-24T20:06:39.363Z,5.07
2022-11-24T20:09:10.991Z,5.12
2022-11-24T20:11:39.546Z,4.50
2022-11-24T20:14:10.073Z,4.73
2022-11-24T20:16:37.805Z,4.60
2022-11-24T20:19:07.602Z,4.10
2022-11-24T20:21:37.234Z,5.40
2022-11-24T20:24:08.187Z,5.97
2022-11-24T20:26:45.200Z,5.17
2022-11-24T20:29:14.037Z,6.40
2022-11-24T20:31:45.682Z,6.07
2022-11-24T20:34:14.029Z,6.07
2022-11-24T20:36:44.374Z,7.12
2022-11-24T20:39:18.146Z,6.63
2022-11-24T20:41:45.954Z,7.22
2022-11-24T20:44:16.252Z,6.68
2022-11-24T20:46:45.744Z,6.93
2022-11-24T20:49:16.732Z,6.25
2022-11-24T20:51:46.949Z,5.93
2022-11-24T20:54:16.813Z,6.18
2022-11-24T20:56:46.540Z,6.97
2022-11-24T20:59:17.242Z,6.00
2022-11-24T21:01:46.830Z,6.72
2022-11-24T21:04:21.459Z,7.73
2022-11-24T21:06:49.439Z,8.40
2022-11-24T21:09:17.094Z,5.00
2022-11-24T21:11:45.119Z,5.30
2022-11-24T21:14:13.342Z,5.43
2022-11-24T21:16:42.383Z,5.93
2022-11-24T21:19:15.009Z,5.90
2022-11-24T21:21:43.282Z,4.93
2022-11-24T21:24:16.262Z,4.43
2022-11-24T21:26:47.572Z,5.15
2022-11-24T21:29:17.907Z,4.80
2022-11-24T21:31:45.720Z,4.90
2022-11-24T21:34:18.643Z,4.68
2022-11-24T21:36:47.114Z,3.92
2022-11-24T21:39:15.776Z,4.15
2022-11-24T21:41:43.438Z,3.03
2022-11-24T21:44:13.074Z,3.50
2022-11-24T21:46:46.162Z,3.05
2022-11-24T21:49:17.215Z,3.15
2022-11-24T21:51:44.744Z,2.87
2022-11-24T21:54:12.184Z,2.90
2022-11-24T21:56:39.870Z,2.75
2022-11-24T21:59:07.549Z,2.60
2022-11-24T22:01:35.069Z,3.10
2022-11-24T22:04:02.897Z,2.72
2022-11-24T22:06:32.099Z,2.73
2022-11-24T22:08:59.485Z,2.12
2022-11-24T22:11:27.202Z,2.47
2022-11-24T22:13:54.631Z,2.65
2022-11-24T22:16:24.602Z,2.72
2022-11-24T22:18:52.647Z,3.17
2022-11-24T22:21:24.179Z,2.75
2022-11-24T22:23:55.113Z,2.80
2022-11-24T22:26:24.287Z,2.33
2022-11-24T22:28:53.339Z,2.53
2022-11-24T22:31:26.501Z,2.40
2022-11-24T22:33:55.930Z,2.10
2022-11-24T22:36:25.760Z,2.12
2022-11-24T22:38:55.095Z,1.70
2022-11-24T22:41:23.238Z,2.10
2022-11-24T22:43:50.683Z,2.37
2022-11-24T22:46:24.057Z,2.12
2022-11-24T22:48:53.377Z,1.90
2022-11-24T22:51:24.634Z,2.20
2022-11-24T22:53:55.550Z,2.25
2022-11-24T22:56:23.866Z,2.07
2022-11-24T22:58:51.683Z,2.00
2022-11-24T23:01:24.318Z,2.10
2022-11-24T23:03:54.682Z,1.90
2022-11-24T23:06:24.526Z,2.03
2022-11-24T23:08:53.019Z,1.97
2022-11-24T23:11:32.743Z,2.42
2022-11-24T23:14:05.226Z,2.30
2022-11-24T23:16:32.721Z,2.58
2022-11-24T23:19:00.198Z,2.10
2022-11-24T23:21:30.479Z,2.10
2022-11-24T23:24:02.244Z,1.55
2022-11-24T23:26:33.356Z,2.22
2022-11-24T23:29:01.377Z,2.10
2022-11-24T23:31:29.273Z,2.12
2022-11-24T23:34:02.862Z,2.30
2022-11-24T23:36:31.254Z,1.83
2022-11-24T23:39:04.793Z,2.20
2022-11-24T23:41:32.283Z,4.40
2022-11-24T23:44:00.204Z,3.35
2022-11-24T23:46:28.153Z,2.37
2022-11-24T23:48:56.862Z,1.95
2022-11-24T23:51:24.544Z,1.90
2022-11-24T23:53:52.581Z,1.87
2022-11-24T23:56:28.099Z,1.42
2022-11-24T23:58:55.858Z,1.67
